Time;durP1;ratioP1;P1;durP2;ratioP2;P2;SDS_P1;SDS_P2;PMS_P1;PMS_P2;Temp;Humidity;BMP_temperature;BMP_pressure;BME280_temperature;BME280_humidity;BME280_pressure;Samples;Min_cycle;Max_cycle;Signal;HPM_P1;HPM_P2
2021/07/22 00:00:19;;;;;;;13.98;2.42;;;43.90;26.50;;;;;;5067785;28;20164;-64
2021/07/22 00:02:51;;;;;;;7.57;1.90;;;43.90;26.80;;;;;;5063880;28;20085;-64
2021/07/22 00:05:19;;;;;;;6.45;2.00;;;44.00;26.70;;;;;;5069206;28;20530;-64
2021/07/22 00:07:46;;;;;;;5.38;1.60;;;43.90;26.80;;;;;;5066857;28;20135;-64
2021/07/22 00:10:16;;;;;;;7.75;1.58;;;43.90;26.70;;;;;;5067405;28;20065;-65
2021/07/22 00:12:44;;;;;;;8.20;1.50;;;43.90;26.80;;;;;;5064034;28;20084;-66
2021/07/22 00:15:11;;;;;;;7.97;1.60;;;43.80;26.70;;;;;;5065200;28;20108;-64
2021/07/22 00:17:37;;;;;;;19.95;1.73;;;43.90;26.60;;;;;;5066091;28;20099;-65
2021/07/22 00:20:05;;;;;;;5.72;1.60;;;43.80;26.70;;;;;;5065729;28;20077;-65
2021/07/22 00:22:35;;;;;;;4.97;1.60;;;43.80;26.40;;;;;;5064286;28;20461;-64
2021/07/22 00:25:01;;;;;;;10.65;1.98;;;43.70;26.70;;;;;;5066166;28;20127;-65
2021/07/22 00:27:28;;;;;;;7.10;1.50;;;43.70;26.70;;;;;;5062895;28;20070;-64
2021/07/22 00:29:54;;;;;;;6.05;1.90;;;43.70;26.60;;;;;;5064338;28;20077;-64
2021/07/22 00:32:21;;;;;;;8.30;1.52;;;43.70;26.60;;;;;;5063821;28;20080;-65
2021/07/22 00:34:47;;;;;;;7.97;2.10;;;43.60;26.80;;;;;;5063077;28;20093;-64
2021/07/22 00:37:14;;;;;;;6.05;1.52;;;43.50;26.90;;;;;;5062311;28;20105;-64
2021/07/22 00:39:40;;;;;;;6.43;1.40;;;43.50;26.60;;;;;;5063342;28;20066;-65
2021/07/22 00:42:07;;;;;;;14.27;2.20;;;43.50;26.80;;;;;;5065563;28;20077;-64
2021/07/22 00:44:33;;;;;;;14.98;2.08;;;43.40;27.00;;;;;;5069201;28;20425;-63
2021/07/22 00:47:00;;;;;;;14.32;2.58;;;43.50;27.10;;;;;;5064776;28;20099;-64
2021/07/22 00:49:26;;;;;;;10.85;2.25;;;43.30;26.80;;;;;;5061761;28;20081;-65
2021/07/22 00:51:53;;;;;;;8.13;1.70;;;43.40;26.80;;;;;;5066481;28;20105;-65
2021/07/22 00:54:21;;;;;;;11.40;2.30;;;43.30;26.90;;;;;;5050222;28;20438;-66
2021/07/22 00:56:48;;;;;;;8.98;1.63;;;43.30;26.90;;;;;;5064015;28;20097;-65
2021/07/22 00:59:14;;;;;;;7.10;1.25;;;43.30;26.70;;;;;;5062042;28;20083;-64
2021/07/22 01:01:41;;;;;;;11.38;2.53;;;43.30;26.90;;;;;;5065814;28;20156;-64
2021/07/22 01:04:07;;;;;;;7.20;1.58;;;43.30;26.90;;;;;;5070697;28;20105;-64
2021/07/22 01:06:34;;;;;;;8.30;1.77;;;43.20;26.80;;;;;;5047815;28;20160;-64
2021/07/22 01:09:00;;;;;;;10.43;1.88;;;43.30;26.90;;;;;;5064919;28;20143;-64
2021/07/22 01:11:27;;;;;;;8.45;2.00;;;43.10;27.00;;;;;;5063497;28;20081;-64
2021/07/22 01:13:53;;;;;;;8.77;2.33;;;43.10;27.00;;;;;;5062272;28;20099;-65
2021/07/22 01:16:20;;;;;;;6.63;1.60;;;43.10;26.90;;;;;;5049057;28;20101;-64
2021/07/22 01:18:46;;;;;;;10.57;2.03;;;43.00;27.00;;;;;;5064448;28;20077;-64
2021/07/22 01:21:14;;;;;;;6.03;1.73;;;43.10;27.10;;;;;;5064524;28;20466;-64
2021/07/22 01:23:40;;;;;;;8.02;2.00;;;43.10;26.90;;;;;;5065460;28;20143;-64
2021/07/22 01:26:07;;;;;;;4.00;1.90;;;43.00;27.00;;;;;;5064011;28;20087;-64
2021/07/22 01:28:33;;;;;;;14.30;1.90;;;42.90;27.00;;;;;;5061794;28;20073;-65
2021/07/22 01:31:00;;;;;;;9.23;2.33;;;42.90;27.10;;;;;;5064113;28;20077;-64
2021/07/22 01:33:26;;;;;;;11.38;2.30;;;42.80;27.10;;;;;;5066121;28;20156;-64
2021/07/22 01:35:53;;;;;;;14.48;2.97;;;42.80;27.30;;;;;;5066147;28;20096;-64
2021/07/22 01:38:20;;;;;;;7.55;2.88;;;42.80;27.30;;;;;;5065036;28;20155;-63
2021/07/22 01:40:47;;;;;;;8.43;2.72;;;42.80;27.50;;;;;;5058802;28;20080;-64
2021/07/22 01:43:13;;;;;;;13.23;3.90;;;42.70;27.20;;;;;;5065480;28;20096;-64
2021/07/22 01:45:40;;;;;;;16.88;3.65;;;42.60;27.20;;;;;;5063707;28;20073;-64
2021/07/22 01:48:06;;;;;;;7.05;2.90;;;42.60;27.40;;;;;;5063963;28;20081;-64
2021/07/22 01:50:33;;;;;;;11.82;3.15;;;42.60;27.20;;;;;;5065553;28;20112;-64
2021/07/22 01:53:01;;;;;;;11.45;3.70;;;42.60;26.90;;;;;;5068005;28;20076;-64
2021/07/22 01:55:28;;;;;;;9.93;3.42;;;42.60;27.00;;;;;;5067899;28;20449;-65
2021/07/22 01:57:57;;;;;;;6.28;2.83;;;42.70;26.70;;;;;;5063456;28;20129;-65
2021/07/22 02:00:24;;;;;;;10.50;4.43;;;43.20;26.60;;;;;;5062007;28;20073;-64
2021/07/22 02:02:50;;;;;;;18.73;3.30;;;43.70;25.70;;;;;;5057862;28;20081;-64
2021/07/22 02:05:18;;;;;;;12.38;3.28;;;43.80;25.60;;;;;;5063980;28;20160;-64
2021/07/22 02:07:45;;;;;;;9.65;3.45;;;43.50;25.70;;;;;;5063941;28;20586;-64
2021/07/22 02:10:11;;;;;;;24.10;4.03;;;43.10;26.20;;;;;;5062003;28;20089;-64
2021/07/22 02:12:38;;;;;;;11.80;4.13;;;42.70;26.70;;;;;;5060587;28;20069;-64
2021/07/22 02:15:05;;;;;;;5.70;2.28;;;42.50;27.10;;;;;;5064033;28;20078;-63
2021/07/22 02:17:32;;;;;;;7.72;2.83;;;42.40;27.30;;;;;;5068948;28;20109;-64
2021/07/22 02:19:59;;;;;;;8.07;2.90;;;42.20;27.50;;;;;;5063222;28;20073;-63
2021/07/22 02:22:25;;;;;;;14.73;3.80;;;42.10;27.70;;;;;;5065796;28;20081;-64
2021/07/22 02:24:52;;;;;;;27.80;3.05;;;41.80;27.80;;;;;;5062968;28;20515;-64
2021/07/22 02:27:18;;;;;;;12.95;3.50;;;41.80;27.80;;;;;;5062925;28;20085;-64
2021/07/22 02:29:45;;;;;;;16.50;4.72;;;41.60;28.10;;;;;;5059934;28;20466;-64
2021/07/22 02:32:11;;;;;;;17.77;5.00;;;41.60;28.40;;;;;;5066758;28;20419;-64
2021/07/22 02:34:38;;;;;;;16.92;4.65;;;41.40;28.70;;;;;;5062181;28;20081;-63
2021/07/22 02:37:04;;;;;;;16.83;4.53;;;41.40;29.00;;;;;;5065067;28;20121;-63
2021/07/22 02:39:31;;;;;;;16.83;4.43;;;41.20;29.60;;;;;;5060756;28;20101;-63
2021/07/22 02:41:58;;;;;;;15.43;4.53;;;41.20;30.10;;;;;;5044045;28;20092;-63
2021/07/22 02:44:24;;;;;;;24.85;4.88;;;41.10;31.10;;;;;;5067683;28;20160;-63
2021/07/22 02:46:51;;;;;;;24.80;4.75;;;40.90;31.80;;;;;;5063111;28;20131;-63
2021/07/22 02:49:17;;;;;;;20.45;4.22;;;40.70;32.40;;;;;;5065034;28;20100;-63
2021/07/22 02:51:44;;;;;;;20.05;4.95;;;40.70;32.60;;;;;;5063330;28;20124;-63
2021/07/22 02:54:13;;;;;;;21.75;7.07;;;40.60;32.50;;;;;;5063077;28;20119;-64
2021/07/22 02:56:40;;;;;;;33.13;7.63;;;40.50;32.80;;;;;;5051074;28;20092;-64
2021/07/22 02:59:06;;;;;;;31.08;8.77;;;40.50;32.80;;;;;;5060080;28;20077;-63
2021/07/22 03:01:33;;;;;;;30.70;8.40;;;40.40;32.70;;;;;;5065855;28;20127;-64
2021/07/22 03:03:59;;;;;;;22.50;7.18;;;40.30;32.90;;;;;;5062629;28;20073;-65
2021/07/22 03:06:26;;;;;;;20.38;5.55;;;40.20;33.00;;;;;;5049483;28;20099;-64
2021/07/22 03:08:52;;;;;;;24.70;4.78;;;40.10;32.90;;;;;;5069626;28;20527;-64
2021/07/22 03:11:19;;;;;;;20.85;5.55;;;40.00;33.10;;;;;;5064002;28;20078;-63
2021/07/22 03:13:45;;;;;;;28.98;6.70;;;39.90;33.50;;;;;;5068493;28;20073;-62
2021/07/22 03:16:12;;;;;;;20.38;6.45;;;39.90;33.50;;;;;;5062677;28;20584;-63
2021/07/22 03:18:38;;;;;;;32.85;6.75;;;39.80;33.60;;;;;;5061922;28;20163;-64
2021/07/22 03:21:05;;;;;;;24.67;8.38;;;39.70;33.80;;;;;;5065889;28;20139;-64
2021/07/22 03:23:31;;;;;;;32.00;8.98;;;39.70;33.90;;;;;;5063994;28;20131;-65
2021/07/22 03:25:58;;;;;;;33.65;9.30;;;39.70;34.10;;;;;;5062922;28;20116;-63
2021/07/22 03:28:24;;;;;;;32.03;9.02;;;39.60;34.70;;;;;;5063878;28;20078;-65
2021/07/22 03:30:51;;;;;;;29.80;8.93;;;39.50;34.30;;;;;;5060974;28;20074;-64
2021/07/22 03:33:18;;;;;;;40.03;11.10;;;39.40;34.60;;;;;;5065880;28;20074;-64
2021/07/22 03:35:44;;;;;;;42.70;11.32;;;39.30;34.90;;;;;;5068831;28;20180;-64
2021/07/22 03:38:10;;;;;;;37.83;10.02;;;39.20;35.10;;;;;;5061841;28;20157;-63
2021/07/22 03:40:37;;;;;;;44.53;9.55;;;39.10;35.80;;;;;;5066861;28;20522;-63
2021/07/22 03:43:04;;;;;;;32.40;7.68;;;39.00;35.50;;;;;;5049580;28;20080;-63
2021/07/22 03:45:30;;;;;;;25.25;7.35;;;38.90;35.60;;;;;;5062945;28;20085;-63
2021/07/22 03:48:00;;;;;;;25.73;6.93;;;38.90;35.70;;;;;;5068656;28;20540;-63
2021/07/22 03:50:28;;;;;;;31.77;6.47;;;38.80;35.80;;;;;;5064539;28;20118;-63
2021/07/22 03:52:56;;;;;;;26.38;6.57;;;38.80;36.50;;;;;;5066129;28;20081;-63
2021/07/22 03:55:26;;;;;;;17.55;5.85;;;38.70;35.80;;;;;;5063040;28;20144;-63
2021/07/22 03:57:54;;;;;;;18.25;5.72;;;38.70;36.00;;;;;;5069664;28;20073;-63
2021/07/22 04:00:20;;;;;;;22.70;5.78;;;38.60;36.00;;;;;;5062496;28;20130;-63
2021/07/22 04:02:47;;;;;;;16.67;5.53;;;38.60;35.70;;;;;;5063715;28;20081;-63
2021/07/22 04:05:13;;;;;;;21.48;6.60;;;38.50;35.80;;;;;;5062726;28;20104;-61
2021/07/22 04:07:40;;;;;;;24.27;5.10;;;38.50;36.00;;;;;;5064901;28;20065;-63
2021/07/22 04:10:07;;;;;;;18.00;4.10;;;38.40;35.90;;;;;;5065130;28;20073;-64
2021/07/22 04:12:35;;;;;;;19.35;3.67;;;38.30;36.10;;;;;;5065926;28;20068;-65
2021/07/22 04:15:01;;;;;;;14.50;2.55;;;38.20;36.40;;;;;;5063323;28;20073;-62
2021/07/22 04:17:28;;;;;;;16.88;2.55;;;38.10;36.60;;;;;;5064422;28;20555;-64
2021/07/22 04:19:55;;;;;;;12.95;2.70;;;38.10;36.80;;;;;;5065305;28;20100;-64
2021/07/22 04:22:21;;;;;;;14.38;2.90;;;38.10;36.60;;;;;;5064633;28;20088;-66
2021/07/22 04:24:48;;;;;;;11.32;2.40;;;38.00;37.20;;;;;;5063895;28;20069;-63
2021/07/22 04:27:14;;;;;;;19.02;2.55;;;37.90;37.40;;;;;;5068640;28;20073;-63
2021/07/22 04:29:40;;;;;;;22.60;2.78;;;37.80;37.80;;;;;;5059617;28;20602;-64
2021/07/22 04:32:07;;;;;;;14.73;2.30;;;37.80;37.90;;;;;;5065143;28;20076;-64
2021/07/22 04:34:34;;;;;;;17.42;2.22;;;37.60;38.60;;;;;;5063507;28;20069;-64
2021/07/22 04:37:04;;;;;;;22.90;3.33;;;37.50;38.80;;;;;;5065831;28;20116;-65
2021/07/22 04:39:31;;;;;;;17.58;3.35;;;37.30;38.90;;;;;;5066707;28;20147;-64
2021/07/22 04:41:58;;;;;;;14.57;2.45;;;37.20;39.80;;;;;;5066793;28;20446;-65
2021/07/22 04:44:26;;;;;;;15.15;3.08;;;37.10;39.40;;;;;;5069121;28;20540;-64
2021/07/22 04:46:54;;;;;;;25.08;4.10;;;37.00;39.60;;;;;;5064608;28;20157;-63
2021/07/22 04:49:21;;;;;;;24.10;5.28;;;36.90;39.60;;;;;;5061493;28;20077;-64
2021/07/22 04:51:47;;;;;;;32.88;6.47;;;36.90;39.50;;;;;;5066662;28;20170;-65
2021/07/22 04:54:14;;;;;;;32.13;5.93;;;36.70;39.30;;;;;;5066449;28;20081;-64
2021/07/22 04:56:40;;;;;;;20.77;4.75;;;36.70;39.50;;;;;;5064847;28;20112;-64
2021/07/22 04:59:07;;;;;;;21.23;5.50;;;36.60;39.40;;;;;;5049204;28;20078;-65
2021/07/22 05:01:33;;;;;;;20.65;6.38;;;36.60;39.10;;;;;;5066036;28;20161;-64
2021/07/22 05:04:00;;;;;;;16.63;4.57;;;36.50;38.60;;;;;;5059982;28;20160;-64
2021/07/22 05:06:27;;;;;;;15.73;4.45;;;36.50;38.70;;;;;;5065213;28;20085;-65
2021/07/22 05:08:53;;;;;;;12.40;3.45;;;36.40;38.50;;;;;;5064081;28;20426;-64
2021/07/22 05:11:20;;;;;;;10.00;3.13;;;36.40;37.80;;;;;;5059612;28;20077;-63
2021/07/22 05:13:47;;;;;;;13.48;3.45;;;36.40;37.40;;;;;;5061428;28;20089;-64
2021/07/22 05:16:14;;;;;;;10.95;2.90;;;35.80;50.00;;;;;;5066718;28;20145;-64
2021/07/22 05:18:41;;;;;;;14.32;3.40;;;35.70;59.90;;;;;;5063426;28;20028;-64
2021/07/22 05:21:08;;;;;;;17.75;4.03;;;;;;;;;;5061521;28;20449;-63
2021/07/22 05:23:35;;;;;;;14.85;4.32;;;;;;;;;;5065232;28;20445;-64
2021/07/22 05:26:05;;;;;;;16.15;4.70;;;36.40;58.40;;;;;;5065376;28;20086;-64
2021/07/22 05:28:32;;;;;;;21.00;4.88;;;36.10;56.50;;;;;;5059120;28;20027;-64
2021/07/22 05:30:58;;;;;;;20.95;4.65;;;36.10;37.10;;;;;;5065875;28;20084;-63
2021/07/22 05:33:25;;;;;;;21.40;5.85;;;36.00;36.60;;;;;;5058233;28;20168;-63
2021/07/22 05:35:52;;;;;;;23.33;6.22;;;36.00;37.50;;;;;;5063903;28;20111;-65
2021/07/22 05:38:18;;;;;;;18.02;5.05;;;36.00;37.90;;;;;;5067145;28;20495;-64
2021/07/22 05:40:45;;;;;;;22.92;4.53;;;35.90;38.20;;;;;;5059115;28;20108;-66
2021/07/22 05:43:11;;;;;;;15.60;4.00;;;35.80;38.60;;;;;;5063676;28;20118;-65
2021/07/22 05:45:38;;;;;;;15.45;3.58;;;35.80;38.80;;;;;;5064844;28;20081;-64
2021/07/22 05:48:05;;;;;;;17.85;4.25;;;35.50;39.70;;;;;;5066273;28;20028;-63
2021/07/22 05:50:31;;;;;;;15.48;4.13;;;35.70;38.50;;;;;;5065529;28;20119;-64
2021/07/22 05:53:00;;;;;;;15.25;3.42;;;35.80;39.20;;;;;;5059114;28;20146;-64
2021/07/22 05:55:28;;;;;;;11.40;2.90;;;35.50;39.40;;;;;;5063012;28;20097;-64
2021/07/22 05:57:54;;;;;;;12.55;3.47;;;35.50;40.00;;;;;;5062112;28;20416;-65
2021/07/22 06:00:21;;;;;;;20.98;6.88;;;35.50;40.40;;;;;;5064594;28;20073;-62
2021/07/22 06:02:47;;;;;;;32.97;15.80;;;35.40;40.60;;;;;;5068093;28;20085;-63
2021/07/22 06:05:14;;;;;;;24.25;6.38;;;35.40;40.80;;;;;;5062056;28;20074;-65
2021/07/22 06:07:40;;;;;;;22.40;3.22;;;35.30;42.10;;;;;;5062715;28;20078;-64
2021/07/22 06:10:07;;;;;;;15.30;2.88;;;35.20;43.40;;;;;;5066376;28;20073;-64
2021/07/22 06:12:34;;;;;;;16.90;3.08;;;35.10;43.80;;;;;;5062995;28;20084;-63
2021/07/22 06:15:00;;;;;;;19.73;2.88;;;35.00;44.90;;;;;;5063395;28;21525;-63
2021/07/22 06:17:27;;;;;;;16.35;3.08;;;34.80;63.90;;;;;;5060626;28;20446;-64
2021/07/22 06:19:53;;;;;;;16.70;3.50;;;34.70;49.90;;;;;;5062726;28;20025;-64
2021/07/22 06:22:20;;;;;;;25.40;3.03;;;34.80;46.40;;;;;;5059237;28;20171;-64
2021/07/22 06:24:47;;;;;;;23.00;3.47;;;;;;;;;;5067594;28;20081;-65
2021/07/22 06:27:13;;;;;;;23.00;3.22;;;;;;;;;;5060735;28;20073;-64
2021/07/22 06:29:40;;;;;;;14.73;3.10;;;;;;;;;;5065874;28;20032;-65
2021/07/22 06:32:07;;;;;;;20.63;2.83;;;;;;;;;;5067044;28;20523;-64
2021/07/22 06:34:34;;;;;;;12.93;2.80;;;34.90;81.60;;;;;;5065893;28;20359;-63
2021/07/22 06:37:00;;;;;;;9.68;2.50;;;34.50;74.40;;;;;;5047347;28;20065;-65
2021/07/22 06:39:32;;;;;;;14.80;3.50;;;34.20;53.10;;;;;;5064725;28;20032;-64
2021/07/22 06:42:02;;;;;;;15.18;2.65;;;;;;;;;;5065015;28;20036;-65
2021/07/22 06:44:29;;;;;;;13.77;2.80;;;;;;;;;;5070134;28;20174;-64
2021/07/22 06:46:56;;;;;;;33.55;4.15;;;;;;;;;;5066402;28;20036;-65
2021/07/22 06:49:23;;;;;;;8.70;2.28;;;34.00;87.80;;;;;;5064130;28;20459;-63
2021/07/22 06:51:51;;;;;;;9.07;2.53;;;34.00;52.20;;;;;;5063873;28;20117;-62
2021/07/22 06:54:18;;;;;;;10.38;2.63;;;34.20;50.40;;;;;;5064307;28;20092;-64
2021/07/22 06:56:44;;;;;;;9.70;2.80;;;33.90;61.90;;;;;;5064452;28;20103;-63
2021/07/22 06:59:11;;;;;;;14.32;2.70;;;33.90;50.50;;;;;;5063393;28;20200;-64
2021/07/22 07:01:38;;;;;;;11.60;2.65;;;;;;;;;;5069926;28;20040;-63
2021/07/22 07:04:05;;;;;;;11.20;2.53;;;34.10;59.70;;;;;;5066967;28;20053;-64
2021/07/22 07:06:34;;;;;;;9.98;2.42;;;33.90;51.20;;;;;;5067590;28;20069;-64
2021/07/22 07:09:03;;;;;;;11.85;2.55;;;33.80;51.60;;;;;;5067114;28;20069;-64
2021/07/22 07:11:30;;;;;;;8.63;2.08;;;33.80;52.00;;;;;;5069833;28;20077;-64
2021/07/22 07:13:56;;;;;;;13.82;2.78;;;33.80;52.50;;;;;;5066409;28;20069;-63
2021/07/22 07:16:23;;;;;;;8.27;2.50;;;33.70;52.50;;;;;;5048634;28;20093;-63
2021/07/22 07:18:49;;;;;;;9.30;2.55;;;33.80;53.10;;;;;;5067592;28;20092;-64
2021/07/22 07:21:16;;;;;;;16.27;2.90;;;33.70;53.50;;;;;;5068652;28;20074;-64
2021/07/22 07:23:42;;;;;;;10.82;2.78;;;33.60;53.90;;;;;;5068137;28;20077;-63
2021/07/22 07:26:12;;;;;;;8.57;2.70;;;33.60;54.40;;;;;;5066925;28;20077;-63
2021/07/22 07:28:39;;;;;;;21.80;2.65;;;33.90;54.90;;;;;;5068368;28;20111;-65
2021/07/22 07:31:06;;;;;;;8.63;2.45;;;33.50;54.40;;;;;;5064309;28;20072;-64
2021/07/22 07:33:32;;;;;;;10.20;2.53;;;33.50;54.40;;;;;;5063710;28;20080;-63
2021/07/22 07:35:59;;;;;;;6.47;1.98;;;33.50;55.00;;;;;;5066991;28;20103;-64
2021/07/22 07:38:25;;;;;;;5.07;1.98;;;33.40;54.80;;;;;;5066863;28;20090;-64
2021/07/22 07:40:52;;;;;;;5.68;2.00;;;;;;;;;;5062847;28;20102;-64
2021/07/22 07:43:20;;;;;;;10.90;2.28;;;;;;;;;;5064959;28;20024;-63
2021/07/22 07:45:46;;;;;;;9.82;2.67;;;;;;;;;;5065554;28;20501;-64
